sensor_id;sensor_type;location;lat;lon;timestamp;P1;durP1;ratioP1;P2;durP2;ratioP2
23632;SDS011;11993;48.748;9.166;2023-10-13T00:00:32;6.07;;;3.00;;
23632;SDS011;11993;48.748;9.166;2023-10-13T00:03:04;7.75;;;3.33;;
23632;SDS011;11993;48.748;9.166;2023-10-13T00:05:31;9.50;;;3.30;;
23632;SDS011;11993;48.748;9.166;2023-10-13T00:07:57;8.77;;;3.53;;
23632;SDS011;11993;48.748;9.166;2023-10-13T00:10:27;7.28;;;3.33;;
23632;SDS011;11993;48.748;9.166;2023-10-13T00:12:54;10.60;;;3.47;;
23632;SDS011;11993;48.748;9.166;2023-10-13T00:15:30;14.10;;;3.55;;
23632;SDS011;11993;48.748;9.166;2023-10-13T00:18:03;11.23;;;3.55;;
23632;SDS011;11993;48.748;9.166;2023-10-13T00:20:41;8.68;;;3.50;;
23632;SDS011;11993;48.748;9.166;2023-10-13T00:25:40;9.57;;;4.10;;
23632;SDS011;11993;48.748;9.166;2023-10-13T00:28:14;9.30;;;3.33;;
23632;SDS011;11993;48.748;9.166;2023-10-13T00:30:48;7.60;;;3.40;;
23632;SDS011;11993;48.748;9.166;2023-10-13T00:33:17;16.73;;;4.20;;
23632;SDS011;11993;48.748;9.166;2023-10-13T00:35:45;7.85;;;3.42;;
23632;SDS011;11993;48.748;9.166;2023-10-13T00:38:12;7.70;;;3.72;;
23632;SDS011;11993;48.748;9.166;2023-10-13T00:40:38;7.18;;;3.63;;
23632;SDS011;11993;48.748;9.166;2023-10-13T00:43:05;8.80;;;3.40;;
23632;SDS011;11993;48.748;9.166;2023-10-13T00:46:00;9.93;;;4.10;;
23632;SDS011;11993;48.748;9.166;2023-10-13T00:48:30;11.13;;;3.80;;
23632;SDS011;11993;48.748;9.166;2023-10-13T00:51:07;9.10;;;3.65;;
23632;SDS011;11993;48.748;9.166;2023-10-13T00:53:33;9.88;;;3.83;;
23632;SDS011;11993;48.748;9.166;2023-10-13T00:56:02;7.05;;;3.40;;
23632;SDS011;11993;48.748;9.166;2023-10-13T00:58:36;11.80;;;3.90;;
23632;SDS011;11993;48.748;9.166;2023-10-13T01:01:04;8.35;;;3.83;;
23632;SDS011;11993;48.748;9.166;2023-10-13T01:03:43;9.43;;;3.50;;
23632;SDS011;11993;48.748;9.166;2023-10-13T01:06:14;11.02;;;3.25;;
23632;SDS011;11993;48.748;9.166;2023-10-13T01:08:45;8.80;;;3.67;;
23632;SDS011;11993;48.748;9.166;2023-10-13T01:11:16;12.07;;;3.58;;
23632;SDS011;11993;48.748;9.166;2023-10-13T01:13:42;8.10;;;3.38;;
23632;SDS011;11993;48.748;9.166;2023-10-13T01:16:08;10.30;;;3.80;;
23632;SDS011;11993;48.748;9.166;2023-10-13T01:18:35;8.98;;;3.78;;
23632;SDS011;11993;48.748;9.166;2023-10-13T01:21:13;8.75;;;3.33;;
23632;SDS011;11993;48.748;9.166;2023-10-13T01:23:42;19.35;;;3.67;;
23632;SDS011;11993;48.748;9.166;2023-10-13T01:26:12;13.35;;;3.65;;
23632;SDS011;11993;48.748;9.166;2023-10-13T01:28:41;10.35;;;4.15;;
23632;SDS011;11993;48.748;9.166;2023-10-13T01:31:13;8.27;;;3.50;;
23632;SDS011;11993;48.748;9.166;2023-10-13T01:33:49;10.25;;;4.30;;
23632;SDS011;11993;48.748;9.166;2023-10-13T01:36:18;7.32;;;3.58;;
23632;SDS011;11993;48.748;9.166;2023-10-13T01:38:44;12.30;;;3.30;;
23632;SDS011;11993;48.748;9.166;2023-10-13T01:41:11;7.88;;;3.67;;
23632;SDS011;11993;48.748;9.166;2023-10-13T01:43:38;10.20;;;3.58;;
23632;SDS011;11993;48.748;9.166;2023-10-13T01:46:04;11.85;;;3.47;;
23632;SDS011;11993;48.748;9.166;2023-10-13T01:48:30;6.78;;;3.25;;
23632;SDS011;11993;48.748;9.166;2023-10-13T01:50:57;9.50;;;4.10;;
23632;SDS011;11993;48.748;9.166;2023-10-13T01:53:27;9.52;;;3.97;;
23632;SDS011;11993;48.748;9.166;2023-10-13T01:55:54;10.02;;;4.30;;
23632;SDS011;11993;48.748;9.166;2023-10-13T01:58:22;7.47;;;3.72;;
23632;SDS011;11993;48.748;9.166;2023-10-13T02:00:48;9.45;;;4.07;;
23632;SDS011;11993;48.748;9.166;2023-10-13T02:03:14;11.70;;;3.53;;
23632;SDS011;11993;48.748;9.166;2023-10-13T02:05:41;10.60;;;3.53;;
23632;SDS011;11993;48.748;9.166;2023-10-13T02:10:56;12.70;;;3.40;;
23632;SDS011;11993;48.748;9.166;2023-10-13T02:13:23;12.00;;;3.53;;
23632;SDS011;11993;48.748;9.166;2023-10-13T02:15:54;8.23;;;4.00;;
23632;SDS011;11993;48.748;9.166;2023-10-13T02:18:28;8.18;;;3.65;;
23632;SDS011;11993;48.748;9.166;2023-10-13T02:21:06;9.05;;;3.72;;
23632;SDS011;11993;48.748;9.166;2023-10-13T02:23:38;15.48;;;4.03;;
23632;SDS011;11993;48.748;9.166;2023-10-13T02:26:13;7.05;;;3.55;;
23632;SDS011;11993;48.748;9.166;2023-10-13T02:28:55;13.00;;;3.80;;
23632;SDS011;11993;48.748;9.166;2023-10-13T02:31:28;9.70;;;3.40;;
23632;SDS011;11993;48.748;9.166;2023-10-13T02:33:53;13.43;;;4.15;;
23632;SDS011;11993;48.748;9.166;2023-10-13T02:36:19;8.23;;;3.17;;
23632;SDS011;11993;48.748;9.166;2023-10-13T02:39:00;8.77;;;3.70;;
23632;SDS011;11993;48.748;9.166;2023-10-13T02:41:33;6.78;;;3.20;;
23632;SDS011;11993;48.748;9.166;2023-10-13T02:44:03;11.43;;;3.45;;
23632;SDS011;11993;48.748;9.166;2023-10-13T02:46:36;11.60;;;3.97;;
23632;SDS011;11993;48.748;9.166;2023-10-13T02:49:04;8.57;;;3.85;;
23632;SDS011;11993;48.748;9.166;2023-10-13T02:51:36;12.32;;;4.07;;
23632;SDS011;11993;48.748;9.166;2023-10-13T02:54:05;11.43;;;3.80;;
23632;SDS011;11993;48.748;9.166;2023-10-13T02:56:43;10.35;;;3.40;;
23632;SDS011;11993;48.748;9.166;2023-10-13T02:59:14;7.18;;;3.13;;
23632;SDS011;11993;48.748;9.166;2023-10-13T03:01:40;8.45;;;3.80;;
23632;SDS011;11993;48.748;9.166;2023-10-13T03:04:05;14.77;;;3.90;;
23632;SDS011;11993;48.748;9.166;2023-10-13T03:06:34;8.85;;;3.13;;
23632;SDS011;11993;48.748;9.166;2023-10-13T03:09:03;12.55;;;3.65;;
23632;SDS011;11993;48.748;9.166;2023-10-13T03:11:43;9.30;;;3.70;;
23632;SDS011;11993;48.748;9.166;2023-10-13T03:14:14;15.52;;;3.72;;
23632;SDS011;11993;48.748;9.166;2023-10-13T03:16:50;7.47;;;3.80;;
23632;SDS011;11993;48.748;9.166;2023-10-13T03:19:16;14.18;;;3.78;;
23632;SDS011;11993;48.748;9.166;2023-10-13T03:21:44;8.52;;;3.67;;
23632;SDS011;11993;48.748;9.166;2023-10-13T03:24:19;9.30;;;3.60;;
23632;SDS011;11993;48.748;9.166;2023-10-13T03:26:48;7.57;;;4.03;;
23632;SDS011;11993;48.748;9.166;2023-10-13T03:29:17;12.05;;;4.25;;
23632;SDS011;11993;48.748;9.166;2023-10-13T03:31:46;8.02;;;3.72;;
23632;SDS011;11993;48.748;9.166;2023-10-13T03:34:28;6.57;;;3.55;;
23632;SDS011;11993;48.748;9.166;2023-10-13T03:36:54;11.77;;;3.80;;
23632;SDS011;11993;48.748;9.166;2023-10-13T03:39:23;10.07;;;3.50;;
23632;SDS011;11993;48.748;9.166;2023-10-13T03:41:54;8.68;;;4.25;;
23632;SDS011;11993;48.748;9.166;2023-10-13T03:44:20;7.60;;;3.72;;
23632;SDS011;11993;48.748;9.166;2023-10-13T03:46:46;9.85;;;3.78;;
23632;SDS011;11993;48.748;9.166;2023-10-13T03:49:15;16.52;;;4.40;;
23632;SDS011;11993;48.748;9.166;2023-10-13T03:51:46;8.23;;;3.38;;
23632;SDS011;11993;48.748;9.166;2023-10-13T03:54:15;16.83;;;3.88;;
23632;SDS011;11993;48.748;9.166;2023-10-13T03:56:41;8.23;;;3.97;;
23632;SDS011;11993;48.748;9.166;2023-10-13T03:59:11;16.90;;;4.30;;
23632;SDS011;11993;48.748;9.166;2023-10-13T04:01:40;14.90;;;3.75;;
23632;SDS011;11993;48.748;9.166;2023-10-13T04:04:12;15.85;;;4.25;;
23632;SDS011;11993;48.748;9.166;2023-10-13T04:06:40;15.70;;;4.45;;
23632;SDS011;11993;48.748;9.166;2023-10-13T04:12:00;12.82;;;4.30;;
23632;SDS011;11993;48.748;9.166;2023-10-13T04:14:46;16.42;;;4.07;;
23632;SDS011;11993;48.748;9.166;2023-10-13T04:17:41;6.95;;;4.25;;
23632;SDS011;11993;48.748;9.166;2023-10-13T04:20:10;7.65;;;3.67;;
23632;SDS011;11993;48.748;9.166;2023-10-13T04:22:39;7.72;;;3.15;;
23632;SDS011;11993;48.748;9.166;2023-10-13T04:25:14;13.30;;;4.28;;
23632;SDS011;11993;48.748;9.166;2023-10-13T04:28:24;9.23;;;4.15;;
23632;SDS011;11993;48.748;9.166;2023-10-13T04:30:52;11.90;;;3.80;;
23632;SDS011;11993;48.748;9.166;2023-10-13T04:33:32;8.80;;;3.60;;
23632;SDS011;11993;48.748;9.166;2023-10-13T04:36:27;11.30;;;4.18;;
23632;SDS011;11993;48.748;9.166;2023-10-13T04:38:53;5.00;;;3.03;;
23632;SDS011;11993;48.748;9.166;2023-10-13T04:41:26;13.77;;;4.40;;
23632;SDS011;11993;48.748;9.166;2023-10-13T04:44:01;14.75;;;4.13;;
23632;SDS011;11993;48.748;9.166;2023-10-13T04:46:30;13.45;;;3.70;;
23632;SDS011;11993;48.748;9.166;2023-10-13T04:49:22;12.88;;;3.88;;
23632;SDS011;11993;48.748;9.166;2023-10-13T04:51:54;12.77;;;3.88;;
23632;SDS011;11993;48.748;9.166;2023-10-13T04:57:18;11.38;;;4.57;;
23632;SDS011;11993;48.748;9.166;2023-10-13T04:59:59;13.20;;;4.35;;
23632;SDS011;11993;48.748;9.166;2023-10-13T05:02:39;11.73;;;3.92;;
23632;SDS011;11993;48.748;9.166;2023-10-13T05:05:28;10.85;;;4.15;;
23632;SDS011;11993;48.748;9.166;2023-10-13T05:08:11;13.93;;;3.80;;
23632;SDS011;11993;48.748;9.166;2023-10-13T05:10:55;12.85;;;3.53;;
23632;SDS011;11993;48.748;9.166;2023-10-13T05:13:41;8.60;;;3.97;;
23632;SDS011;11993;48.748;9.166;2023-10-13T05:16:25;14.05;;;4.15;;
23632;SDS011;11993;48.748;9.166;2023-10-13T05:19:10;10.20;;;3.90;;
23632;SDS011;11993;48.748;9.166;2023-10-13T05:21:54;10.15;;;3.97;;
23632;SDS011;11993;48.748;9.166;2023-10-13T05:24:38;8.52;;;4.45;;
23632;SDS011;11993;48.748;9.166;2023-10-13T05:27:22;11.63;;;4.15;;
23632;SDS011;11993;48.748;9.166;2023-10-13T05:30:06;19.05;;;7.50;;
23632;SDS011;11993;48.748;9.166;2023-10-13T05:32:50;10.48;;;3.95;;
23632;SDS011;11993;48.748;9.166;2023-10-13T05:35:34;16.33;;;4.03;;
23632;SDS011;11993;48.748;9.166;2023-10-13T05:38:18;9.23;;;4.07;;
23632;SDS011;11993;48.748;9.166;2023-10-13T05:41:03;10.82;;;4.05;;
23632;SDS011;11993;48.748;9.166;2023-10-13T05:43:48;11.38;;;3.78;;
23632;SDS011;11993;48.748;9.166;2023-10-13T05:46:33;10.75;;;4.10;;
23632;SDS011;11993;48.748;9.166;2023-10-13T05:49:05;10.93;;;4.30;;
23632;SDS011;11993;48.748;9.166;2023-10-13T05:54:07;10.98;;;3.53;;
23632;SDS011;11993;48.748;9.166;2023-10-13T05:56:48;11.00;;;4.53;;
23632;SDS011;11993;48.748;9.166;2023-10-13T05:59:34;9.90;;;4.40;;
23632;SDS011;11993;48.748;9.166;2023-10-13T06:02:20;12.00;;;4.78;;
23632;SDS011;11993;48.748;9.166;2023-10-13T06:05:08;8.90;;;3.90;;
23632;SDS011;11993;48.748;9.166;2023-10-13T06:07:54;14.68;;;4.05;;
23632;SDS011;11993;48.748;9.166;2023-10-13T06:10:38;8.40;;;4.25;;
23632;SDS011;11993;48.748;9.166;2023-10-13T06:13:23;14.90;;;4.32;;
23632;SDS011;11993;48.748;9.166;2023-10-13T06:16:14;17.42;;;4.53;;
23632;SDS011;11993;48.748;9.166;2023-10-13T06:19:00;16.73;;;3.60;;
23632;SDS011;11993;48.748;9.166;2023-10-13T06:21:45;29.25;;;4.68;;
23632;SDS011;11993;48.748;9.166;2023-10-13T06:24:29;19.85;;;4.10;;
23632;SDS011;11993;48.748;9.166;2023-10-13T06:27:14;13.38;;;4.15;;
23632;SDS011;11993;48.748;9.166;2023-10-13T06:29:59;12.90;;;4.35;;
23632;SDS011;11993;48.748;9.166;2023-10-13T06:32:25;11.50;;;4.32;;
23632;SDS011;11993;48.748;9.166;2023-10-13T06:34:52;17.63;;;4.82;;
23632;SDS011;11993;48.748;9.166;2023-10-13T06:37:22;15.15;;;4.65;;
23632;SDS011;11993;48.748;9.166;2023-10-13T06:39:51;15.40;;;4.10;;
23632;SDS011;11993;48.748;9.166;2023-10-13T06:42:43;14.63;;;4.22;;
23632;SDS011;11993;48.748;9.166;2023-10-13T06:45:09;8.52;;;3.78;;
23632;SDS011;11993;48.748;9.166;2023-10-13T06:47:35;22.10;;;4.78;;
23632;SDS011;11993;48.748;9.166;2023-10-13T06:50:13;14.07;;;4.75;;
23632;SDS011;11993;48.748;9.166;2023-10-13T06:52:44;14.93;;;4.50;;
23632;SDS011;11993;48.748;9.166;2023-10-13T06:55:14;15.63;;;4.45;;
23632;SDS011;11993;48.748;9.166;2023-10-13T06:57:48;17.45;;;4.70;;
23632;SDS011;11993;48.748;9.166;2023-10-13T07:00:16;12.90;;;4.60;;
23632;SDS011;11993;48.748;9.166;2023-10-13T07:02:52;15.07;;;4.20;;
23632;SDS011;11993;48.748;9.166;2023-10-13T07:05:18;20.90;;;4.18;;
23632;SDS011;11993;48.748;9.166;2023-10-13T07:07:44;16.42;;;4.00;;
23632;SDS011;11993;48.748;9.166;2023-10-13T07:10:11;16.10;;;4.65;;
23632;SDS011;11993;48.748;9.166;2023-10-13T07:12:38;13.18;;;4.32;;
23632;SDS011;11993;48.748;9.166;2023-10-13T07:15:08;11.77;;;3.80;;
23632;SDS011;11993;48.748;9.166;2023-10-13T07:17:47;10.43;;;4.13;;
23632;SDS011;11993;48.748;9.166;2023-10-13T07:20:20;12.10;;;3.47;;
23632;SDS011;11993;48.748;9.166;2023-10-13T07:22:58;18.10;;;3.92;;
23632;SDS011;11993;48.748;9.166;2023-10-13T07:25:34;12.60;;;3.88;;
23632;SDS011;11993;48.748;9.166;2023-10-13T07:28:03;12.85;;;4.00;;
23632;SDS011;11993;48.748;9.166;2023-10-13T07:30:29;10.32;;;3.85;;
23632;SDS011;11993;48.748;9.166;2023-10-13T07:33:04;15.35;;;3.72;;
23632;SDS011;11993;48.748;9.166;2023-10-13T07:35:31;11.52;;;3.92;;
23632;SDS011;11993;48.748;9.166;2023-10-13T07:38:00;13.70;;;3.63;;
23632;SDS011;11993;48.748;9.166;2023-10-13T07:40:26;12.77;;;3.92;;
23632;SDS011;11993;48.748;9.166;2023-10-13T07:42:53;18.70;;;4.28;;
23632;SDS011;11993;48.748;9.166;2023-10-13T07:45:38;15.00;;;3.65;;
23632;SDS011;11993;48.748;9.166;2023-10-13T07:48:06;13.05;;;4.28;;
23632;SDS011;11993;48.748;9.166;2023-10-13T07:50:58;10.57;;;3.60;;
23632;SDS011;11993;48.748;9.166;2023-10-13T07:53:26;10.90;;;3.38;;
23632;SDS011;11993;48.748;9.166;2023-10-13T07:55:53;11.30;;;3.78;;
23632;SDS011;11993;48.748;9.166;2023-10-13T07:58:25;11.30;;;3.65;;
23632;SDS011;11993;48.748;9.166;2023-10-13T08:00:51;16.88;;;4.40;;
23632;SDS011;11993;48.748;9.166;2023-10-13T08:03:31;12.65;;;4.05;;
23632;SDS011;11993;48.748;9.166;2023-10-13T08:06:00;8.88;;;3.78;;
23632;SDS011;11993;48.748;9.166;2023-10-13T08:08:43;11.18;;;3.75;;
23632;SDS011;11993;48.748;9.166;2023-10-13T08:11:14;12.07;;;3.20;;
23632;SDS011;11993;48.748;9.166;2023-10-13T08:14:00;8.60;;;3.15;;
23632;SDS011;11993;48.748;9.166;2023-10-13T08:19:21;11.27;;;3.25;;
23632;SDS011;11993;48.748;9.166;2023-10-13T08:21:59;14.50;;;4.53;;
23632;SDS011;11993;48.748;9.166;2023-10-13T08:24:48;11.45;;;3.53;;
23632;SDS011;11993;48.748;9.166;2023-10-13T08:27:18;15.20;;;3.60;;
23632;SDS011;11993;48.748;9.166;2023-10-13T08:29:59;12.52;;;3.80;;
23632;SDS011;11993;48.748;9.166;2023-10-13T08:33:04;11.38;;;3.10;;
23632;SDS011;11993;48.748;9.166;2023-10-13T08:35:41;14.27;;;4.07;;
23632;SDS011;11993;48.748;9.166;2023-10-13T08:38:19;10.57;;;3.67;;
23632;SDS011;11993;48.748;9.166;2023-10-13T08:40:53;9.98;;;3.22;;
23632;SDS011;11993;48.748;9.166;2023-10-13T08:43:38;16.63;;;3.28;;
23632;SDS011;11993;48.748;9.166;2023-10-13T08:46:15;11.60;;;3.40;;
23632;SDS011;11993;48.748;9.166;2023-10-13T08:48:57;23.10;;;3.85;;
23632;SDS011;11993;48.748;9.166;2023-10-13T08:51:33;14.77;;;3.45;;
23632;SDS011;11993;48.748;9.166;2023-10-13T08:54:13;8.88;;;2.92;;
23632;SDS011;11993;48.748;9.166;2023-10-13T08:56:58;7.45;;;3.00;;
23632;SDS011;11993;48.748;9.166;2023-10-13T08:59:44;14.27;;;3.55;;
23632;SDS011;11993;48.748;9.166;2023-10-13T09:02:18;10.25;;;3.13;;
23632;SDS011;11993;48.748;9.166;2023-10-13T09:04:46;18.10;;;3.45;;
23632;SDS011;11993;48.748;9.166;2023-10-13T09:07:24;10.23;;;3.50;;
23632;SDS011;11993;48.748;9.166;2023-10-13T09:09:50;11.52;;;3.10;;
23632;SDS011;11993;48.748;9.166;2023-10-13T09:12:17;18.65;;;3.45;;
23632;SDS011;11993;48.748;9.166;2023-10-13T09:14:53;9.70;;;3.28;;
23632;SDS011;11993;48.748;9.166;2023-10-13T09:17:23;16.92;;;3.85;;
23632;SDS011;11993;48.748;9.166;2023-10-13T09:19:58;11.00;;;3.55;;
23632;SDS011;11993;48.748;9.166;2023-10-13T09:22:36;11.23;;;3.10;;
23632;SDS011;11993;48.748;9.166;2023-10-13T09:25:03;14.82;;;3.35;;
23632;SDS011;11993;48.748;9.166;2023-10-13T09:27:31;11.95;;;2.60;;
23632;SDS011;11993;48.748;9.166;2023-10-13T09:30:02;9.73;;;2.80;;
23632;SDS011;11993;48.748;9.166;2023-10-13T09:32:43;11.48;;;3.65;;
23632;SDS011;11993;48.748;9.166;2023-10-13T09:37:48;9.32;;;3.15;;
23632;SDS011;11993;48.748;9.166;2023-10-13T09:40:18;16.63;;;3.20;;
23632;SDS011;11993;48.748;9.166;2023-10-13T09:43:00;12.32;;;3.28;;
23632;SDS011;11993;48.748;9.166;2023-10-13T09:45:40;10.13;;;2.72;;
23632;SDS011;11993;48.748;9.166;2023-10-13T09:48:24;11.85;;;3.17;;
23632;SDS011;11993;48.748;9.166;2023-10-13T09:51:09;13.07;;;3.15;;
23632;SDS011;11993;48.748;9.166;2023-10-13T09:53:39;13.07;;;3.55;;
23632;SDS011;11993;48.748;9.166;2023-10-13T09:56:23;9.73;;;3.00;;
23632;SDS011;11993;48.748;9.166;2023-10-13T09:59:02;8.10;;;2.65;;
23632;SDS011;11993;48.748;9.166;2023-10-13T10:01:42;21.63;;;3.20;;
23632;SDS011;11993;48.748;9.166;2023-10-13T10:04:16;8.25;;;3.10;;
23632;SDS011;11993;48.748;9.166;2023-10-13T10:06:56;11.35;;;3.10;;
23632;SDS011;11993;48.748;9.166;2023-10-13T10:09:28;12.48;;;3.20;;
23632;SDS011;11993;48.748;9.166;2023-10-13T10:17:23;8.75;;;3.15;;
23632;SDS011;11993;48.748;9.166;2023-10-13T10:19:54;11.82;;;2.95;;
23632;SDS011;11993;48.748;9.166;2023-10-13T10:22:27;10.38;;;2.92;;
23632;SDS011;11993;48.748;9.166;2023-10-13T10:25:04;13.93;;;3.45;;
23632;SDS011;11993;48.748;9.166;2023-10-13T10:27:56;12.65;;;2.90;;
23632;SDS011;11993;48.748;9.166;2023-10-13T10:30:26;8.48;;;3.38;;
23632;SDS011;11993;48.748;9.166;2023-10-13T10:32:55;7.80;;;3.50;;
23632;SDS011;11993;48.748;9.166;2023-10-13T10:35:25;11.07;;;2.97;;
23632;SDS011;11993;48.748;9.166;2023-10-13T10:37:56;11.52;;;2.88;;
23632;SDS011;11993;48.748;9.166;2023-10-13T10:40:36;11.63;;;3.22;;
23632;SDS011;11993;48.748;9.166;2023-10-13T10:48:39;13.77;;;3.08;;
23632;SDS011;11993;48.748;9.166;2023-10-13T10:51:11;11.80;;;3.17;;
23632;SDS011;11993;48.748;9.166;2023-10-13T10:53:51;14.95;;;3.80;;
23632;SDS011;11993;48.748;9.166;2023-10-13T10:56:18;10.55;;;2.92;;
23632;SDS011;11993;48.748;9.166;2023-10-13T10:58:50;10.93;;;2.78;;
23632;SDS011;11993;48.748;9.166;2023-10-13T11:01:22;6.55;;;3.03;;
23632;SDS011;11993;48.748;9.166;2023-10-13T11:03:59;16.98;;;3.63;;
23632;SDS011;11993;48.748;9.166;2023-10-13T11:06:50;6.40;;;3.20;;
23632;SDS011;11993;48.748;9.166;2023-10-13T11:09:24;11.57;;;3.03;;
23632;SDS011;11993;48.748;9.166;2023-10-13T11:11:51;12.68;;;3.58;;
23632;SDS011;11993;48.748;9.166;2023-10-13T11:14:25;14.68;;;3.75;;
23632;SDS011;11993;48.748;9.166;2023-10-13T11:16:53;12.77;;;3.25;;
23632;SDS011;11993;48.748;9.166;2023-10-13T11:19:41;9.57;;;3.30;;
23632;SDS011;11993;48.748;9.166;2023-10-13T11:25:01;11.57;;;3.47;;
23632;SDS011;11993;48.748;9.166;2023-10-13T11:27:41;11.70;;;3.60;;
23632;SDS011;11993;48.748;9.166;2023-10-13T11:30:19;11.18;;;3.30;;
23632;SDS011;11993;48.748;9.166;2023-10-13T11:35:31;10.27;;;3.08;;
23632;SDS011;11993;48.748;9.166;2023-10-13T11:38:15;8.38;;;2.92;;
23632;SDS011;11993;48.748;9.166;2023-10-13T11:40:51;14.25;;;3.35;;
23632;SDS011;11993;48.748;9.166;2023-10-13T11:43:35;12.18;;;3.40;;
23632;SDS011;11993;48.748;9.166;2023-10-13T11:46:15;12.85;;;3.03;;
23632;SDS011;11993;48.748;9.166;2023-10-13T11:48:42;11.57;;;3.40;;
23632;SDS011;11993;48.748;9.166;2023-10-13T11:51:10;10.13;;;3.17;;
23632;SDS011;11993;48.748;9.166;2023-10-13T11:53:49;11.18;;;3.33;;
23632;SDS011;11993;48.748;9.166;2023-10-13T11:56:18;12.57;;;3.65;;
23632;SDS011;11993;48.748;9.166;2023-10-13T11:58:47;10.77;;;4.85;;
23632;SDS011;11993;48.748;9.166;2023-10-13T12:01:14;11.23;;;2.97;;
23632;SDS011;11993;48.748;9.166;2023-10-13T12:03:43;16.92;;;3.67;;
23632;SDS011;11993;48.748;9.166;2023-10-13T12:06:28;12.55;;;3.20;;
23632;SDS011;11993;48.748;9.166;2023-10-13T12:09:14;15.98;;;3.72;;
23632;SDS011;11993;48.748;9.166;2023-10-13T12:12:21;12.07;;;3.15;;
23632;SDS011;11993;48.748;9.166;2023-10-13T12:14:51;9.18;;;3.78;;
23632;SDS011;11993;48.748;9.166;2023-10-13T12:17:21;8.50;;;3.03;;
23632;SDS011;11993;48.748;9.166;2023-10-13T12:19:59;10.82;;;3.22;;
23632;SDS011;11993;48.748;9.166;2023-10-13T12:22:35;8.10;;;2.83;;
23632;SDS011;11993;48.748;9.166;2023-10-13T12:25:06;9.68;;;3.50;;
23632;SDS011;11993;48.748;9.166;2023-10-13T12:27:49;9.68;;;2.97;;
23632;SDS011;11993;48.748;9.166;2023-10-13T12:30:21;13.98;;;3.10;;
23632;SDS011;11993;48.748;9.166;2023-10-13T12:33:13;14.50;;;3.35;;
23632;SDS011;11993;48.748;9.166;2023-10-13T12:35:42;11.70;;;3.42;;
23632;SDS011;11993;48.748;9.166;2023-10-13T12:38:28;6.55;;;3.03;;
23632;SDS011;11993;48.748;9.166;2023-10-13T12:41:12;9.75;;;3.35;;
23632;SDS011;11993;48.748;9.166;2023-10-13T12:44:04;13.70;;;3.33;;
23632;SDS011;11993;48.748;9.166;2023-10-13T12:46:48;12.60;;;2.60;;
23632;SDS011;11993;48.748;9.166;2023-10-13T12:49:33;7.28;;;2.92;;
23632;SDS011;11993;48.748;9.166;2023-10-13T12:52:11;13.77;;;3.38;;
23632;SDS011;11993;48.748;9.166;2023-10-13T12:55:03;12.70;;;3.28;;
23632;SDS011;11993;48.748;9.166;2023-10-13T12:57:34;12.93;;;3.08;;
23632;SDS011;11993;48.748;9.166;2023-10-13T13:00:08;10.45;;;3.15;;
23632;SDS011;11993;48.748;9.166;2023-10-13T13:02:41;15.45;;;3.30;;
23632;SDS011;11993;48.748;9.166;2023-10-13T13:05:07;6.50;;;3.35;;
23632;SDS011;11993;48.748;9.166;2023-10-13T13:07:37;9.48;;;3.17;;
23632;SDS011;11993;48.748;9.166;2023-10-13T13:10:11;12.50;;;3.75;;
23632;SDS011;11993;48.748;9.166;2023-10-13T13:12:38;10.85;;;3.15;;
23632;SDS011;11993;48.748;9.166;2023-10-13T13:15:04;6.97;;;2.80;;
23632;SDS011;11993;48.748;9.166;2023-10-13T13:17:34;16.25;;;3.20;;
23632;SDS011;11993;48.748;9.166;2023-10-13T13:20:00;9.25;;;2.88;;
23632;SDS011;11993;48.748;9.166;2023-10-13T13:22:35;9.63;;;3.22;;
23632;SDS011;11993;48.748;9.166;2023-10-13T13:25:01;10.35;;;3.03;;
23632;SDS011;11993;48.748;9.166;2023-10-13T13:27:26;10.05;;;2.60;;
23632;SDS011;11993;48.748;9.166;2023-10-13T13:29:52;6.32;;;2.65;;
23632;SDS011;11993;48.748;9.166;2023-10-13T13:32:17;12.13;;;2.75;;
23632;SDS011;11993;48.748;9.166;2023-10-13T13:34:49;10.25;;;2.90;;
23632;SDS011;11993;48.748;9.166;2023-10-13T13:37:23;10.43;;;3.22;;
23632;SDS011;11993;48.748;9.166;2023-10-13T13:39:52;7.07;;;3.03;;
23632;SDS011;11993;48.748;9.166;2023-10-13T13:42:18;14.40;;;2.70;;
23632;SDS011;11993;48.748;9.166;2023-10-13T13:44:44;12.80;;;2.88;;
23632;SDS011;11993;48.748;9.166;2023-10-13T13:47:11;10.40;;;3.20;;
23632;SDS011;11993;48.748;9.166;2023-10-13T13:49:41;11.18;;;3.00;;
23632;SDS011;11993;48.748;9.166;2023-10-13T13:52:17;8.05;;;2.67;;
23632;SDS011;11993;48.748;9.166;2023-10-13T13:54:46;8.32;;;2.78;;
23632;SDS011;11993;48.748;9.166;2023-10-13T13:57:12;8.13;;;2.70;;
23632;SDS011;11993;48.748;9.166;2023-10-13T13:59:38;8.52;;;2.92;;
23632;SDS011;11993;48.748;9.166;2023-10-13T14:02:04;9.48;;;3.05;;
23632;SDS011;11993;48.748;9.166;2023-10-13T14:04:44;14.68;;;2.80;;
23632;SDS011;11993;48.748;9.166;2023-10-13T14:07:11;10.10;;;2.78;;
23632;SDS011;11993;48.748;9.166;2023-10-13T14:09:39;11.77;;;2.95;;
23632;SDS011;11993;48.748;9.166;2023-10-13T14:12:08;6.35;;;3.00;;
23632;SDS011;11993;48.748;9.166;2023-10-13T14:14:55;8.98;;;3.17;;
23632;SDS011;11993;48.748;9.166;2023-10-13T14:17:21;9.38;;;2.72;;
23632;SDS011;11993;48.748;9.166;2023-10-13T14:20:00;9.25;;;3.17;;
23632;SDS011;11993;48.748;9.166;2023-10-13T14:22:34;12.13;;;2.60;;
23632;SDS011;11993;48.748;9.166;2023-10-13T14:25:02;6.63;;;2.60;;
23632;SDS011;11993;48.748;9.166;2023-10-13T14:27:33;6.65;;;2.80;;
23632;SDS011;11993;48.748;9.166;2023-10-13T14:30:00;8.48;;;2.92;;
23632;SDS011;11993;48.748;9.166;2023-10-13T14:32:29;6.80;;;2.67;;
23632;SDS011;11993;48.748;9.166;2023-10-13T14:34:54;8.10;;;2.35;;
23632;SDS011;11993;48.748;9.166;2023-10-13T14:37:21;6.72;;;2.58;;
23632;SDS011;11993;48.748;9.166;2023-10-13T14:39:56;6.57;;;2.60;;
23632;SDS011;11993;48.748;9.166;2023-10-13T14:42:23;8.23;;;2.80;;
23632;SDS011;11993;48.748;9.166;2023-10-13T14:44:49;7.88;;;2.50;;
23632;SDS011;11993;48.748;9.166;2023-10-13T14:47:26;7.13;;;2.33;;
23632;SDS011;11993;48.748;9.166;2023-10-13T14:49:52;11.27;;;2.95;;
23632;SDS011;11993;48.748;9.166;2023-10-13T14:52:24;7.25;;;2.97;;
23632;SDS011;11993;48.748;9.166;2023-10-13T14:54:54;9.27;;;2.08;;
23632;SDS011;11993;48.748;9.166;2023-10-13T14:57:22;11.25;;;2.58;;
23632;SDS011;11993;48.748;9.166;2023-10-13T14:59:52;12.10;;;2.95;;
23632;SDS011;11993;48.748;9.166;2023-10-13T15:02:18;5.43;;;2.45;;
23632;SDS011;11993;48.748;9.166;2023-10-13T15:04:44;4.60;;;2.47;;
23632;SDS011;11993;48.748;9.166;2023-10-13T15:07:13;6.00;;;2.50;;
23632;SDS011;11993;48.748;9.166;2023-10-13T15:09:39;14.60;;;3.38;;
23632;SDS011;11993;48.748;9.166;2023-10-13T15:12:07;6.07;;;2.50;;
23632;SDS011;11993;48.748;9.166;2023-10-13T15:14:35;11.15;;;2.80;;
23632;SDS011;11993;48.748;9.166;2023-10-13T15:17:07;4.28;;;2.50;;
23632;SDS011;11993;48.748;9.166;2023-10-13T15:19:34;9.23;;;2.15;;
23632;SDS011;11993;48.748;9.166;2023-10-13T15:22:03;6.72;;;2.42;;
23632;SDS011;11993;48.748;9.166;2023-10-13T15:24:33;6.95;;;2.55;;
23632;SDS011;11993;48.748;9.166;2023-10-13T15:27:08;7.18;;;2.55;;
23632;SDS011;11993;48.748;9.166;2023-10-13T15:29:33;10.88;;;2.53;;
23632;SDS011;11993;48.748;9.166;2023-10-13T15:32:03;7.55;;;2.33;;
23632;SDS011;11993;48.748;9.166;2023-10-13T15:34:31;9.07;;;2.70;;
23632;SDS011;11993;48.748;9.166;2023-10-13T15:36:58;8.85;;;2.20;;
23632;SDS011;11993;48.748;9.166;2023-10-13T15:39:24;4.93;;;2.22;;
23632;SDS011;11993;48.748;9.166;2023-10-13T15:41:53;9.63;;;2.42;;
23632;SDS011;11993;48.748;9.166;2023-10-13T15:44:23;8.23;;;3.05;;
23632;SDS011;11993;48.748;9.166;2023-10-13T15:46:53;13.98;;;2.83;;
23632;SDS011;11993;48.748;9.166;2023-10-13T15:49:20;7.28;;;2.35;;
23632;SDS011;11993;48.748;9.166;2023-10-13T15:51:46;6.97;;;2.10;;
23632;SDS011;11993;48.748;9.166;2023-10-13T15:54:11;6.00;;;2.25;;